Orion II — 9HUT9 — position and weather

sailwx.info

Track history (hours):
 
Tides and Currents Weather Stations Pressure Air Temp Water Temp Dewpoint Dewpoint Depression Visibility Wind Speed Wind Dir Waves Ship Positions

Orion II

Last reported at 2018-May-23 01:45 UTC. Time now 2018-May-23 05:21 UTC.
Position N 53°21' W 005°33'.

Length 88 m; draft 4 m.

Type: Ship. MMSI: 249556000.

Date/timePositionNaut miles runAvg speedWind from/ knotsBaromVisibWave heightAir tempDewpointWater temp
2018-May-23 01:45N 53°21' W 005°33'2 6.2
2018-May-23 01:30N 53°21' W 005°36'3 6.4
2018-May-23 00:59N 53°21' W 005°41'3 6.6
2018-May-23 00:29N 53°21' W 005°47'4 7.8
2018-May-23 00:00N 53°21' W 005°53'12 7.7
2018-May-22 22:30N 53°21' W 006°12'1 0.1
2018-May-22 16:15N 53°21' W 006°14'0 0.0
2018-May-22 15:51N 53°21' W 006°14'0 0.0
2018-May-22 14:09N 53°21' W 006°14'0 0.0
2018-May-22 13:51N 53°21' W 006°14'0 0.0
2018-May-22 10:21N 53°21' W 006°14'0 0.0
2018-May-22 08:06N 53°21' W 006°14'0 0.0
2018-May-22 06:36N 53°21' W 006°14'0 0.0
2018-May-22 06:09N 53°21' W 006°14'0 0.0
2018-May-22 05:57N 53°21' W 006°14'0 0.0
2018-May-22 05:20N 53°21' W 006°14'0 0.4
2018-May-22 05:00N 53°21' W 006°13'4 7.0
2018-May-22 04:29N 53°20' W 006°07'610.2
2018-May-22 03:52N 53°23' W 005°57'4410.4
2018-May-21 23:39N 54°03' W 005°29'213.3
2018-May-21 23:30N 54°05' W 005°28'713.1
2018-May-21 23:00N 54°11' W 005°23'713.1
2018-May-21 22:30N 54°17' W 005°19'713.1
2018-May-21 22:00N 54°24' W 005°17'713.0
2018-May-21 21:30N 54°30' W 005°17'612.3
2018-May-21 21:00N 54°36' W 005°22'612.5
2018-May-21 20:30N 54°41' W 005°27'611.6
2018-May-21 20:00N 54°42' W 005°37'613.0
2018-May-21 19:30N 54°41' W 005°48'610.9
2018-May-21 19:00N 54°37' W 005°55'0 0.5
2018-May-21 18:24N 54°37' W 005°55'0 0.0
2018-May-21 17:50N 54°37' W 005°55'0 0.0
2018-May-21 17:26N 54°37' W 005°55'0 0.0
2018-May-21 16:56N 54°37' W 005°55'0 0.0
2018-May-21 16:30N 54°37' W 005°55'0 0.0
2018-May-21 16:00N 54°37' W 005°55'0 0.0
2018-May-21 15:30N 54°37' W 005°55'0 0.0
2018-May-21 14:50N 54°37' W 005°55'0 0.0
2018-May-21 14:12N 54°37' W 005°55'0 0.0
2018-May-21 13:56N 54°37' W 005°55'0 0.0
2018-May-21 13:25N 54°37' W 005°55'0 0.0
2018-May-21 12:48N 54°37' W 005°55'0 0.0
2018-May-21 12:27N 54°37' W 005°55'0 0.0
2018-May-21 12:00N 54°37' W 005°55'0 0.0
2018-May-21 11:30N 54°37' W 005°55'0 0.0
2018-May-21 11:00N 54°37' W 005°55'0 0.0
2018-May-21 10:30N 54°37' W 005°55'0 0.0
2018-May-21 09:51N 54°37' W 005°55'0 0.0
2018-May-21 09:24N 54°37' W 005°55'0 0.0
2018-May-21 09:00N 54°37' W 005°55'0 0.0
2018-May-21 08:27N 54°37' W 005°55'0 0.0
2018-May-21 08:00N 54°37' W 005°55'0 0.0
2018-May-21 07:27N 54°37' W 005°55'2 2.8
2018-May-21 06:54N 54°38' W 005°53'511.5
2018-May-21 06:30N 54°41' W 005°48'5 9.1
2018-May-21 06:00N 54°43' W 005°41'3 5.7
2018-May-21 05:30N 54°46' W 005°39'3 7.0
2018-May-21 05:00N 54°50' W 005°40'23 7.9
2018-May-21 02:06N 55°11' W 005°55'12 9.4
2018-May-21 00:51N 55°20' W 006°07'411.7
2018-May-21 00:30N 55°22' W 006°14'713.2
2018-May-21 00:00N 55°27' W 006°22'713.7
2018-May-20 23:30N 55°32' W 006°30'714.3
2018-May-20 23:00N 55°37' W 006°38'715.0
2018-May-20 22:30N 55°44' W 006°46'216 4.2
2018-May-18 19:36N 58°45' W 003°11'112.7
2018-May-18 19:30N 58°45' W 003°08'13 1.0
2018-May-18 06:42N 58°57' W 003°18'2 6.4
2018-May-18 06:21N 58°56' W 003°15'412.0
2018-May-18 06:00N 58°54' W 003°07'813.3
2018-May-18 05:24N 58°46' W 003°02'512.0
2018-May-18 05:00N 58°42' W 002°60'5 9.9
2018-May-18 04:30N 58°38' W 002°55'74 9.9
2018-May-17 21:00N 57°34' W 001°42'611.5
2018-May-17 20:30N 57°29' W 001°41'1711.7
2018-May-17 19:05N 57°14' W 001°56'111.3
2018-May-17 19:00N 57°13' W 001°57'510.9
2018-May-17 18:30N 57°09' W 002°03'1 2.8
2018-May-17 18:00N 57°09' W 002°05'0 0.0
2018-May-17 17:29N 57°09' W 002°05'0 0.0
2018-May-17 17:00N 57°09' W 002°05'0 0.0
2018-May-17 16:29N 57°09' W 002°05'0 0.0
2018-May-17 15:59N 57°09' W 002°05'0 0.0
2018-May-17 15:30N 57°09' W 002°05'0 0.0
2018-May-17 14:59N 57°09' W 002°05'0 0.0
2018-May-17 14:29N 57°09' W 002°05'0 0.0
2018-May-17 14:00N 57°09' W 002°05'0 0.0
2018-May-17 13:30N 57°09' W 002°05'0 0.0
2018-May-17 13:00N 57°09' W 002°05'0 0.0
2018-May-17 12:29N 57°09' W 002°05'0 0.0
2018-May-17 12:00N 57°09' W 002°05'0 0.0
2018-May-17 11:30N 57°09' W 002°05'0 0.0
2018-May-17 10:59N 57°09' W 002°05'0 0.0
2018-May-17 10:30N 57°09' W 002°05'0 0.0
2018-May-17 10:00N 57°09' W 002°05'0 0.0
2018-May-17 09:30N 57°09' W 002°05'0 0.0
2018-May-17 09:00N 57°09' W 002°05'0 0.0
2018-May-17 08:29N 57°09' W 002°05'0 0.0
2018-May-17 08:00N 57°09' W 002°05'0 0.0
2018-May-17 07:29N 57°09' W 002°05'0 0.0
2018-May-17 07:00N 57°09' W 002°05'0 0.0
2018-May-17 06:30N 57°09' W 002°05'0 0.0
2018-May-17 06:00N 57°09' W 002°05'0 0.0
2018-May-17 05:30N 57°09' W 002°05'0 0.0
2018-May-17 05:00N 57°09' W 002°05'2 3.7
2018-May-17 04:30N 57°09' W 002°02'4 7.7
2018-May-17 04:00N 57°05' W 002°02'5511.9
2018-May-16 23:26N 56°14' W 002°33'612.1
2018-May-16 22:59N 56°10' W 002°41'612.6
2018-May-16 22:30N 56°07' W 002°50'613.0
2018-May-16 22:00N 56°03' W 002°60'611.6
2018-May-16 21:28N 56°00' W 003°10'1 2.7
2018-May-16 20:59N 55°59' W 003°11'0 0.4
2018-May-16 20:30N 55°59' W 003°11'0 0.0
2018-May-16 05:01N 55°59' W 003°11'0 0.1
2018-May-16 04:57N 55°59' W 003°11'0 0.9
2018-May-16 04:30N 55°59' W 003°11'0 0.4
2018-May-16 04:00N 55°59' W 003°11'2 3.7
2018-May-16 03:31N 56°01' W 003°08'5 9.9
2018-May-16 03:00N 56°03' W 003°01'4 8.8
2018-May-16 02:30N 56°05' W 002°54'4 8.0
2018-May-16 02:00N 56°08' W 002°48'4 8.2
2018-May-16 01:30N 56°10' W 002°42'4 8.4
2018-May-16 00:58N 56°12' W 002°35'4 8.1
2018-May-16 00:30N 56°15' W 002°30'6 8.3
2018-May-15 23:45N 56°20' W 002°23'4 8.3
2018-May-15 23:16N 56°23' W 002°20'38 9.5
2018-May-15 19:13N 57°00' W 002°02'2 8.8
2018-May-15 19:00N 57°02' W 002°00'5 9.2
2018-May-15 18:30N 57°06' W 001°59'4 7.3
2018-May-15 18:00N 57°08' W 002°04'1 1.1
2018-May-15 17:30N 57°09' W 002°05'0 0.0
2018-May-15 17:00N 57°09' W 002°05'0 0.0
2018-May-15 16:30N 57°09' W 002°05'0 0.0
2018-May-15 16:00N 57°09' W 002°05'0 0.0
2018-May-15 15:30N 57°09' W 002°05'0 0.0
2018-May-15 15:00N 57°09' W 002°05'0 0.0
2018-May-15 14:30N 57°09' W 002°05'0 0.0
2018-May-15 14:00N 57°09' W 002°05'0 0.0
2018-May-15 13:30N 57°09' W 002°05'0 0.0
2018-May-15 13:00N 57°09' W 002°05'0 0.0
2018-May-15 12:30N 57°09' W 002°05'0 0.0
2018-May-15 12:00N 57°09' W 002°05'0 0.0
2018-May-15 11:30N 57°09' W 002°05'0 0.0
2018-May-15 11:00N 57°09' W 002°05'0 0.0
2018-May-15 10:30N 57°09' W 002°05'0 0.0
2018-May-15 10:00N 57°09' W 002°05'0 0.0
2018-May-15 09:30N 57°09' W 002°05'0 0.0
2018-May-15 09:00N 57°09' W 002°05'0 0.0
2018-May-15 08:30N 57°09' W 002°05'0 0.0
2018-May-15 08:00N 57°09' W 002°05'0 0.0
2018-May-15 07:30N 57°09' W 002°05'0 0.0
2018-May-15 07:00N 57°09' W 002°05'0 0.0
2018-May-15 06:30N 57°09' W 002°05'0 0.0
2018-May-15 06:00N 57°09' W 002°05'0 0.0
2018-May-15 05:30N 57°09' W 002°05'1 1.8
2018-May-15 05:00N 57°09' W 002°04'2 4.7
2018-May-15 04:30N 57°10' W 002°00'3 6.7
2018-May-15 04:00N 57°13' W 001°57'5 9.8
2018-May-15 03:30N 57°17' W 001°52'8 9.9
2018-May-15 02:39N 57°25' W 001°45'110.0
2018-May-15 02:30N 57°26' W 001°43'510.1
2018-May-15 02:00N 57°31' W 001°41'612.3
2018-May-15 01:30N 57°37' W 001°41'612.4
2018-May-15 01:00N 57°43' W 001°45'713.0
2018-May-15 00:30N 57°48' W 001°51'5512.4
2018-May-14 20:03N 58°34' W 002°51'113.7
2018-May-14 20:00N 58°34' W 002°52'917.3
2018-May-14 19:31N 58°42' W 002°60'1014.8
2018-May-14 18:50N 58°52' W 003°03'9 0.8
2018-May-14 06:57N 58°57' W 003°18'510.3
2018-May-14 06:30N 58°54' W 003°12'712.0
2018-May-14 05:54N 58°47' W 003°07'8 9.3
2018-May-14 05:05N 58°45' W 003°21'1 9.0
2018-May-14 05:00N 58°45' W 003°23'  
Track history (hours):
 
Tides and Currents Weather Stations Pressure Air Temp Water Temp Dewpoint Dewpoint Depression Visibility Wind Speed Wind Dir Waves Ship Positions

Orion II

Last reported at 2018-May-23 01:45 UTC. Time now 2018-May-23 05:21 UTC.
Position N 53°21' W 005°33'.

Length 88 m; draft 4 m.

Type: Ship. MMSI: 249556000.

Date/timePositionNaut miles runAvg speedWind from/ knotsBaromVisibWave heightAir tempDewpointWater temp
2018-May-23 01:45N 53°21' W 005°33'2 6.2
2018-May-23 01:30N 53°21' W 005°36'3 6.4
2018-May-23 00:59N 53°21' W 005°41'3 6.6
2018-May-23 00:29N 53°21' W 005°47'4 7.8
2018-May-23 00:00N 53°21' W 005°53'12 7.7
2018-May-22 22:30N 53°21' W 006°12'1 0.1
2018-May-22 16:15N 53°21' W 006°14'0 0.0
2018-May-22 15:51N 53°21' W 006°14'0 0.0
2018-May-22 14:09N 53°21' W 006°14'0 0.0
2018-May-22 13:51N 53°21' W 006°14'0 0.0
2018-May-22 10:21N 53°21' W 006°14'0 0.0
2018-May-22 08:06N 53°21' W 006°14'0 0.0
2018-May-22 06:36N 53°21' W 006°14'0 0.0
2018-May-22 06:09N 53°21' W 006°14'0 0.0
2018-May-22 05:57N 53°21' W 006°14'0 0.0
2018-May-22 05:20N 53°21' W 006°14'0 0.4
2018-May-22 05:00N 53°21' W 006°13'4 7.0
2018-May-22 04:29N 53°20' W 006°07'610.2
2018-May-22 03:52N 53°23' W 005°57'4410.4
2018-May-21 23:39N 54°03' W 005°29'213.3
2018-May-21 23:30N 54°05' W 005°28'713.1
2018-May-21 23:00N 54°11' W 005°23'713.1
2018-May-21 22:30N 54°17' W 005°19'713.1
2018-May-21 22:00N 54°24' W 005°17'713.0
2018-May-21 21:30N 54°30' W 005°17'612.3
2018-May-21 21:00N 54°36' W 005°22'612.5
2018-May-21 20:30N 54°41' W 005°27'611.6
2018-May-21 20:00N 54°42' W 005°37'613.0
2018-May-21 19:30N 54°41' W 005°48'610.9
2018-May-21 19:00N 54°37' W 005°55'0 0.5
2018-May-21 18:24N 54°37' W 005°55'0 0.0
2018-May-21 17:50N 54°37' W 005°55'0 0.0
2018-May-21 17:26N 54°37' W 005°55'0 0.0
2018-May-21 16:56N 54°37' W 005°55'0 0.0
2018-May-21 16:30N 54°37' W 005°55'0 0.0
2018-May-21 16:00N 54°37' W 005°55'0 0.0
2018-May-21 15:30N 54°37' W 005°55'0 0.0
2018-May-21 14:50N 54°37' W 005°55'0 0.0
2018-May-21 14:12N 54°37' W 005°55'0 0.0
2018-May-21 13:56N 54°37' W 005°55'0 0.0
2018-May-21 13:25N 54°37' W 005°55'0 0.0
2018-May-21 12:48N 54°37' W 005°55'0 0.0
2018-May-21 12:27N 54°37' W 005°55'0 0.0
2018-May-21 12:00N 54°37' W 005°55'0 0.0
2018-May-21 11:30N 54°37' W 005°55'0 0.0
2018-May-21 11:00N 54°37' W 005°55'0 0.0
2018-May-21 10:30N 54°37' W 005°55'0 0.0
2018-May-21 09:51N 54°37' W 005°55'0 0.0
2018-May-21 09:24N 54°37' W 005°55'0 0.0
2018-May-21 09:00N 54°37' W 005°55'0 0.0
2018-May-21 08:27N 54°37' W 005°55'0 0.0
2018-May-21 08:00N 54°37' W 005°55'0 0.0
2018-May-21 07:27N 54°37' W 005°55'2 2.8
2018-May-21 06:54N 54°38' W 005°53'511.5
2018-May-21 06:30N 54°41' W 005°48'5 9.1
2018-May-21 06:00N 54°43' W 005°41'3 5.7
2018-May-21 05:30N 54°46' W 005°39'3 7.0
2018-May-21 05:00N 54°50' W 005°40'23 7.9
2018-May-21 02:06N 55°11' W 005°55'12 9.4
2018-May-21 00:51N 55°20' W 006°07'411.7
2018-May-21 00:30N 55°22' W 006°14'713.2
2018-May-21 00:00N 55°27' W 006°22'713.7
2018-May-20 23:30N 55°32' W 006°30'714.3
2018-May-20 23:00N 55°37' W 006°38'715.0
2018-May-20 22:30N 55°44' W 006°46'216 4.2
2018-May-18 19:36N 58°45' W 003°11'112.7
2018-May-18 19:30N 58°45' W 003°08'13 1.0
2018-May-18 06:42N 58°57' W 003°18'2 6.4
2018-May-18 06:21N 58°56' W 003°15'412.0
2018-May-18 06:00N 58°54' W 003°07'813.3
2018-May-18 05:24N 58°46' W 003°02'512.0
2018-May-18 05:00N 58°42' W 002°60'5 9.9
2018-May-18 04:30N 58°38' W 002°55'74 9.9
2018-May-17 21:00N 57°34' W 001°42'611.5
2018-May-17 20:30N 57°29' W 001°41'1711.7
2018-May-17 19:05N 57°14' W 001°56'111.3
2018-May-17 19:00N 57°13' W 001°57'510.9
2018-May-17 18:30N 57°09' W 002°03'1 2.8
2018-May-17 18:00N 57°09' W 002°05'0 0.0
2018-May-17 17:29N 57°09' W 002°05'0 0.0
2018-May-17 17:00N 57°09' W 002°05'0 0.0
2018-May-17 16:29N 57°09' W 002°05'0 0.0
2018-May-17 15:59N 57°09' W 002°05'0 0.0
2018-May-17 15:30N 57°09' W 002°05'0 0.0
2018-May-17 14:59N 57°09' W 002°05'0 0.0
2018-May-17 14:29N 57°09' W 002°05'0 0.0
2018-May-17 14:00N 57°09' W 002°05'0 0.0
2018-May-17 13:30N 57°09' W 002°05'0 0.0
2018-May-17 13:00N 57°09' W 002°05'0 0.0
2018-May-17 12:29N 57°09' W 002°05'0 0.0
2018-May-17 12:00N 57°09' W 002°05'0 0.0
2018-May-17 11:30N 57°09' W 002°05'0 0.0
2018-May-17 10:59N 57°09' W 002°05'0 0.0
2018-May-17 10:30N 57°09' W 002°05'0 0.0
2018-May-17 10:00N 57°09' W 002°05'0 0.0
2018-May-17 09:30N 57°09' W 002°05'0 0.0
2018-May-17 09:00N 57°09' W 002°05'0 0.0
2018-May-17 08:29N 57°09' W 002°05'0 0.0
2018-May-17 08:00N 57°09' W 002°05'0 0.0
2018-May-17 07:29N 57°09' W 002°05'0 0.0
2018-May-17 07:00N 57°09' W 002°05'0 0.0
2018-May-17 06:30N 57°09' W 002°05'0 0.0
2018-May-17 06:00N 57°09' W 002°05'0 0.0
2018-May-17 05:30N 57°09' W 002°05'0 0.0
2018-May-17 05:00N 57°09' W 002°05'2 3.7
2018-May-17 04:30N 57°09' W 002°02'4 7.7
2018-May-17 04:00N 57°05' W 002°02'5511.9
2018-May-16 23:26N 56°14' W 002°33'612.1
2018-May-16 22:59N 56°10' W 002°41'612.6
2018-May-16 22:30N 56°07' W 002°50'613.0
2018-May-16 22:00N 56°03' W 002°60'611.6
2018-May-16 21:28N 56°00' W 003°10'1 2.7
2018-May-16 20:59N 55°59' W 003°11'0 0.4
2018-May-16 20:30N 55°59' W 003°11'0 0.0
2018-May-16 05:01N 55°59' W 003°11'0 0.1
2018-May-16 04:57N 55°59' W 003°11'0 0.9
2018-May-16 04:30N 55°59' W 003°11'0 0.4
2018-May-16 04:00N 55°59' W 003°11'2 3.7
2018-May-16 03:31N 56°01' W 003°08'5 9.9
2018-May-16 03:00N 56°03' W 003°01'4 8.8
2018-May-16 02:30N 56°05' W 002°54'4 8.0
2018-May-16 02:00N 56°08' W 002°48'4 8.2
2018-May-16 01:30N 56°10' W 002°42'4 8.4
2018-May-16 00:58N 56°12' W 002°35'4 8.1
2018-May-16 00:30N 56°15' W 002°30'6 8.3
2018-May-15 23:45N 56°20' W 002°23'4 8.3
2018-May-15 23:16N 56°23' W 002°20'38 9.5
2018-May-15 19:13N 57°00' W 002°02'2 8.8
2018-May-15 19:00N 57°02' W 002°00'5 9.2
2018-May-15 18:30N 57°06' W 001°59'4 7.3
2018-May-15 18:00N 57°08' W 002°04'1 1.1
2018-May-15 17:30N 57°09' W 002°05'0 0.0
2018-May-15 17:00N 57°09' W 002°05'0 0.0
2018-May-15 16:30N 57°09' W 002°05'0 0.0
2018-May-15 16:00N 57°09' W 002°05'0 0.0
2018-May-15 15:30N 57°09' W 002°05'0 0.0
2018-May-15 15:00N 57°09' W 002°05'0 0.0
2018-May-15 14:30N 57°09' W 002°05'0 0.0
2018-May-15 14:00N 57°09' W 002°05'0 0.0
2018-May-15 13:30N 57°09' W 002°05'0 0.0
2018-May-15 13:00N 57°09' W 002°05'0 0.0
2018-May-15 12:30N 57°09' W 002°05'0 0.0
2018-May-15 12:00N 57°09' W 002°05'0 0.0
2018-May-15 11:30N 57°09' W 002°05'0 0.0
2018-May-15 11:00N 57°09' W 002°05'0 0.0
2018-May-15 10:30N 57°09' W 002°05'0 0.0
2018-May-15 10:00N 57°09' W 002°05'0 0.0
2018-May-15 09:30N 57°09' W 002°05'0 0.0
2018-May-15 09:00N 57°09' W 002°05'0 0.0
2018-May-15 08:30N 57°09' W 002°05'0 0.0
2018-May-15 08:00N 57°09' W 002°05'0 0.0
2018-May-15 07:30N 57°09' W 002°05'0 0.0
2018-May-15 07:00N 57°09' W 002°05'0 0.0
2018-May-15 06:30N 57°09' W 002°05'0 0.0
2018-May-15 06:00N 57°09' W 002°05'0 0.0
2018-May-15 05:30N 57°09' W 002°05'1 1.8
2018-May-15 05:00N 57°09' W 002°04'2 4.7
2018-May-15 04:30N 57°10' W 002°00'3 6.7
2018-May-15 04:00N 57°13' W 001°57'5 9.8
2018-May-15 03:30N 57°17' W 001°52'8 9.9
2018-May-15 02:39N 57°25' W 001°45'110.0
2018-May-15 02:30N 57°26' W 001°43'510.1
2018-May-15 02:00N 57°31' W 001°41'612.3
2018-May-15 01:30N 57°37' W 001°41'612.4
2018-May-15 01:00N 57°43' W 001°45'713.0
2018-May-15 00:30N 57°48' W 001°51'5512.4
2018-May-14 20:03N 58°34' W 002°51'113.7
2018-May-14 20:00N 58°34' W 002°52'917.3
2018-May-14 19:31N 58°42' W 002°60'1014.8
2018-May-14 18:50N 58°52' W 003°03'9 0.8
2018-May-14 06:57N 58°57' W 003°18'510.3
2018-May-14 06:30N 58°54' W 003°12'712.0
2018-May-14 05:54N 58°47' W 003°07'8 9.3
2018-May-14 05:05N 58°45' W 003°21'1 9.0
2018-May-14 05:00N 58°45' W 003°23'  

Dump ship's entire track history